• Join FlightAware (Why Join?)
  • Login
  • US Flag 
01:36AM EST


 

Airport Tracker/Info


-or-


 

Live Flight TrackerFlight Track Log ✈ N55NG ✈ 08-Jun-2014 ✈ KVJI - KPBI

Flight Track Log - Related Links

Times and Time Zones

All times are in EDT time to prevent confusion due to time zone crossing. See the N55NG flight status page for this flight to view local times or setup timezone preferences in your user account.

Time Position Orientation Groundspeed Altitude Reporting Facility
EDT Latitude Longitude Course Direction KTS MPH feet Rate Location/Type
12:11PM 36.5908 -82.0556 173° South 230 265 6,400  Level Atlanta Center
12:12PM 36.5156 -82.0444 173° South 261 300 9,100 2,340 Climbing Atlanta Center
12:13PM 36.4319 -82.0286 171° South 291 335 11,100 2,160 Climbing Atlanta Center
12:14PM 36.3461 -82.0100 170° South 310 357 13,500 2,340 Climbing Atlanta Center
12:15PM 36.2581 -81.9917 170° South 317 365 15,800 2,220 Climbing Atlanta Center
12:16PM 36.1703 -81.9758 172° South 317 365 18,000 2,160 Climbing Atlanta Center
12:17PM 36.0803 -81.9603 172° South 317 365 20,200 2,100 Climbing Atlanta Center
12:18PM 35.9883 -81.9422 171° South 329 379 22,300 1,800 Climbing Atlanta Center
12:19PM 35.8961 -81.9267 172° South 334 384 23,800 1,260 Climbing Atlanta Center
12:20PM 35.7936 -81.9061 171° South 346 398 24,900 660 Climbing Atlanta Center
12:21PM 35.6956 -81.9036 179° South 382 440 25,200 900 Climbing Atlanta Center
12:22PM 35.5872 -81.9089 182° South 392 451 26,700 1,440 Climbing Atlanta Center
12:23PM 35.4808 -81.9117 181° South 392 451 28,100 1,200 Climbing Atlanta Center
12:24PM 35.3744 -81.9144 181° South 386 444 29,100 1,020 Climbing Atlanta Center
12:25PM 35.2678 -81.8969 172° South 386 444 30,200 1,020 Climbing Atlanta Center
12:26PM 35.1589 -81.8844 175° South 386 444 31,200 900 Climbing Atlanta Center
12:27PM 35.0503 -81.8669 172° South 393 452 32,000 780 Climbing Atlanta Center
12:28PM 34.9353 -81.8547 175° South 404 465 32,800 840 Climbing Atlanta Center
12:29PM 34.8200 -81.8350 172° South 409 471 33,700 840 Climbing Atlanta Center
12:30PM 34.7031 -81.8206 174° South 414 476 34,500 900 Climbing Atlanta Center
12:32PM 34.4636 -81.7844 173° South 407 468 36,500 960 Climbing Jacksonville Center
12:33PM 34.3489 -81.7683 173° South 407 468 37,500 960 Climbing Jacksonville Center
12:34PM 34.2319 -81.7497 173° South 418 481 38,500 1,020 Climbing Jacksonville Center
12:35PM 34.1128 -81.7364 175° South 423 487 39,600 720 Climbing Jacksonville Center
12:36PM 33.9978 -81.7203 173° South 428 493 40,000 180 Climbing Jacksonville Center
12:37PM 33.8767 -81.7019 173° South 428 493 40,000  Level Jacksonville Center
12:38PM 33.7533 -81.6861 174° South 434 499 40,000  Level Jacksonville Center
12:39PM 33.6344 -81.6703 174° South 434 499 40,000  Level Jacksonville Center
12:40PM 33.5153 -81.6519 173° South 434 499 40,000  Level Jacksonville Center
12:41PM 33.3939 -81.6361 174° South 434 499 40,000  Level Jacksonville Center
12:42PM 33.2769 -81.6206 174° South 434 499 40,000  Level Jacksonville Center
12:43PM 33.1558 -81.6097 176° South 434 499 40,000  Level Jacksonville Center
12:44PM 33.0219 -81.5894 173° South 440 506 40,000  Level Jacksonville Center
12:45PM 32.9028 -81.5764 175° South 440 506 40,000  Level Jacksonville Center
12:46PM 32.7836 -81.5583 173° South 440 506 40,000  Level Jacksonville Center
12:47PM 32.6814 -81.5475 175° South 429 494 40,000  Level Jacksonville Center
12:48PM 32.5475 -81.5272 173° South 429 494 40,000  Level Jacksonville Center
12:49PM 32.4306 -81.5142 175° South 424 488 40,000  Level Jacksonville Center
12:50PM 32.3217 -81.5011 174° South 436 502 40,000  Level Jacksonville Center
12:51PM 32.1900 -81.4858 174° South 441 507 40,000  Level Jacksonville Center
12:52PM 32.0772 -81.4706 173° South 447 514 40,000  Level Jacksonville Center
12:53PM 31.9433 -81.4506 173° South 445 512 40,000  Level Jacksonville Center
12:54PM 31.8242 -81.4353 174° South 445 512 40,000  Level Jacksonville Center
12:55PM 31.7175 -81.4197 173° South 445 512 40,000  Level Jacksonville Center
12:56PM 31.5858 -81.4025 174° South 445 512 40,000  Level Jacksonville Center
12:57PM 31.4769 -81.3872 173° South 439 505 40,000  Level Jacksonville Center
12:58PM 31.3556 -81.3719 174° South 441 507 40,000  Level Jacksonville Center
12:59PM 31.2364 -81.3569 174° South 441 507 40,000  Level Jacksonville Center
01:00PM 31.1153 -81.3419 174° South 441 507 40,000 -360 Level Jacksonville Center
01:01PM 30.9961 -81.3269 174° South 441 507 39,300 -900 Descending Jacksonville Center
01:02PM 30.8789 -81.3119 174° South 435 501 38,300 -660 Descending Jacksonville Center
01:03PM 30.7639 -81.2969 174° South 430 495 38,000 -180 Descending Jacksonville Center
01:04PM 30.6447 -81.2797 173° South 423 487 38,000  Level Jacksonville Center
01:05PM 30.5275 -81.2647 174° South 423 487 38,000  Level Jacksonville Center
01:06PM 30.4083 -81.2500 174° South 428 493 38,000  Level Jacksonville Center
01:07PM 30.2911 -81.2350 174° South 428 493 38,000  Level Jacksonville Center
01:08PM 30.1742 -81.2203 174° South 423 487 38,000  Level Jacksonville Center
01:09PM 30.0550 -81.2081 175° South 428 493 38,000  Level Jacksonville Center
01:10PM 29.9358 -81.1933 174° South 428 493 38,000  Level Jacksonville Center
01:11PM 29.8208 -81.1786 174° South 428 493 38,000  Level Jacksonville Center
01:12PM 29.7017 -81.1664 175° South 428 493 38,000  Level Jacksonville Center
01:13PM 29.5825 -81.1492 173° South 428 493 38,000 -120 Level Jacksonville Center
01:14PM 29.4653 -81.1322 173° South 423 487 37,800 -1,140 Descending Jacksonville Center
01:15PM 29.3461 -81.1247 177° South 423 487 35,800 -1,920 Descending Jacksonville Center
01:16PM 29.2389 -81.0719 157° South 415 478 34,000 -900 Descending Jacksonville Center
01:17PM 29.1397 -80.9931 145° Southeast 431 496 34,000  Level Jacksonville Center
01:19PM 28.9386 -80.8483 148° Southeast 432 497 34,000  Level Miami Center
01:20PM 28.8211 -80.7636 148° Southeast 441 507 34,000  Level Miami Center
01:21PM 28.7128 -80.6850 148° Southeast 441 507 34,000  Level Miami Center
01:22PM 28.6050 -80.6061 147° Southeast 441 507 34,000 -300 Level Miami Center
01:23PM 28.4975 -80.5294 148° Southeast 439 505 33,400 -1,860 Descending Miami Center
01:25PM 28.3925 -80.4556 148° Southeast 427 491 30,200 -3,120 Descending Miami Center
01:26PM 28.2800 -80.3739 147° Southeast 452 520 26,900 -3,000 Descending Miami Center
01:27PM 28.1794 -80.3022 148° Southeast 447 514 24,100 -2,340 Descending Miami Center
01:28PM 28.0711 -80.2250 148° Southeast 442 509 22,100 -2,040 Descending Miami Center
01:29PM 27.9519 -80.1850 163° South 429 494 20,000 -1,980 Descending Miami Center
01:30PM 27.8319 -80.1778 177° South 422 486 18,100 -1,860 Descending Miami Center
01:31PM 27.7125 -80.1678 176° South 411 473 16,200 -1,800 Descending Miami Center
01:32PM 27.5942 -80.1586 176° South 409 471 14,400 -1,740 Descending Miami Center
01:33PM 27.4892 -80.1503 176° South 392 451 12,700 -1,560 Descending Miami Center
01:34PM 27.3917 -80.1414 175° South 330 380 11,200 -1,260 Descending Miami Center
01:35PM 27.3028 -80.1361 177° South 308 354 10,100 -1,140 Descending Miami Center
01:36PM 27.2169 -80.1164 168° South 306 352 8,900 -1,560 Descending Miami Center
01:37PM 27.1381 -80.0750 155° Southeast 303 349 6,900 -1,980 Descending Miami Center
01:38PM 27.0606 -80.0372 157° South 294 338 4,800 -1,440 Descending Miami Center
01:39PM 26.9875 -79.9997 155° Southeast 279 321 4,000 -420 Descending Miami Center
01:40PM 26.9203 -80.0097 188° South 272 313 4,000  Level Miami Center
01:41PM 26.8589 -80.0633 218° Southwest 270 311 4,000 -480 Level Miami Center
01:42PM 26.8003 -80.1158 219° Southwest 259 298 3,100 -1,260 Descending Miami Center
01:43PM 26.7431 -80.1536 211° Southwest 222 255 1,500 -1,260 Descending Miami Center
01:44PM 26.7086 -80.1236 142° Southeast 158 182 500 -540 Descending Miami Center
01:45PM 26.6850 -80.0956 133° Southeast 146 168 400 -120 Descending Miami Center
01:47PM 26.6832 -80.0956 110° East  Level Estimated